createdAt,value
2019-06-20T00:02:09.527Z,99.90
2019-06-20T00:04:38.397Z,99.90
2019-06-20T00:07:07.284Z,99.90
2019-06-20T00:09:36.167Z,99.90
2019-06-20T00:12:05.583Z,99.90
2019-06-20T00:14:34.490Z,99.90
2019-06-20T00:17:03.330Z,99.90
2019-06-20T00:19:32.272Z,99.90
2019-06-20T00:22:01.083Z,99.90
2019-06-20T00:24:29.915Z,99.90
2019-06-20T00:26:58.882Z,99.90
2019-06-20T00:29:27.777Z,99.90
2019-06-20T00:31:56.683Z,99.90
2019-06-20T00:34:25.669Z,99.90
2019-06-20T00:36:54.504Z,99.90
2019-06-20T00:39:23.398Z,99.90
2019-06-20T00:41:52.246Z,99.90
2019-06-20T00:44:21.183Z,99.90
2019-06-20T00:46:50.065Z,99.90
2019-06-20T00:49:19.006Z,99.90
2019-06-20T00:51:47.961Z,99.90
2019-06-20T00:54:16.787Z,99.90
2019-06-20T00:56:45.658Z,99.90
2019-06-20T00:59:14.512Z,99.90
2019-06-20T01:01:43.422Z,99.90
2019-06-20T01:04:12.382Z,99.90
2019-06-20T01:06:41.336Z,99.90
2019-06-20T01:09:10.498Z,99.90
2019-06-20T01:11:39.456Z,99.90
2019-06-20T01:14:13.933Z,99.90
2019-06-20T01:16:42.792Z,99.90
2019-06-20T01:19:11.706Z,99.90
2019-06-20T01:21:40.768Z,99.90
2019-06-20T01:24:09.638Z,99.90
2019-06-20T01:26:38.537Z,99.90
2019-06-20T01:29:07.471Z,99.90
2019-06-20T01:31:36.327Z,99.90
2019-06-20T01:34:05.334Z,99.90
2019-06-20T01:36:34.187Z,99.90
2019-06-20T01:39:03.088Z,99.90
2019-06-20T01:41:31.987Z,99.90
2019-06-20T01:44:00.892Z,99.90
2019-06-20T01:46:29.815Z,99.90
2019-06-20T01:48:58.715Z,99.90
2019-06-20T01:51:27.597Z,99.90
2019-06-20T01:53:56.995Z,99.90
2019-06-20T01:56:25.829Z,99.90
2019-06-20T01:58:54.750Z,99.90
2019-06-20T02:01:23.670Z,99.90
2019-06-20T02:03:52.570Z,99.90
2019-06-20T02:06:21.478Z,99.90
2019-06-20T02:08:50.363Z,99.90
2019-06-20T02:11:19.279Z,99.90
2019-06-20T02:13:48.112Z,99.90
2019-06-20T02:16:17.062Z,99.90
2019-06-20T02:18:45.961Z,99.90
2019-06-20T02:21:14.882Z,99.90
2019-06-20T02:23:43.773Z,99.90
2019-06-20T02:26:12.604Z,99.90
2019-06-20T02:28:41.517Z,99.90
2019-06-20T02:31:10.417Z,99.90
2019-06-20T02:33:39.290Z,99.90
2019-06-20T02:36:08.188Z,99.90
2019-06-20T02:38:37.029Z,99.90
2019-06-20T02:41:05.981Z,99.90
2019-06-20T02:43:34.886Z,99.90
2019-06-20T02:46:07.364Z,99.90
2019-06-20T02:48:36.260Z,99.90
2019-06-20T02:51:05.339Z,99.90
2019-06-20T02:53:34.422Z,99.90
2019-06-20T02:56:03.331Z,99.90
2019-06-20T02:58:32.172Z,99.90
2019-06-20T03:01:01.025Z,99.90
2019-06-20T03:03:30.064Z,99.90
2019-06-20T03:05:59.026Z,99.90
2019-06-20T03:08:28.149Z,99.90
2019-06-20T03:10:57.030Z,99.90
2019-06-20T03:13:25.887Z,99.90
2019-06-20T03:15:54.822Z,99.90
2019-06-20T03:18:23.678Z,99.90
2019-06-20T03:20:52.575Z,99.90
2019-06-20T03:23:21.460Z,99.90
2019-06-20T03:25:50.371Z,99.90
2019-06-20T03:28:19.293Z,99.90
2019-06-20T03:30:48.154Z,99.90
2019-06-20T03:33:17.000Z,99.90
2019-06-20T03:35:45.938Z,99.90
2019-06-20T03:38:14.879Z,99.90
2019-06-20T03:40:43.857Z,99.90
2019-06-20T03:43:12.775Z,99.90
2019-06-20T03:45:41.722Z,99.90
2019-06-20T03:48:10.565Z,99.90
2019-06-20T03:50:39.477Z,99.90
2019-06-20T03:53:08.302Z,99.90
2019-06-20T03:55:37.196Z,99.90
2019-06-20T03:58:06.287Z,99.90
2019-06-20T04:00:36.935Z,99.90
2019-06-20T04:03:06.742Z,99.90
2019-06-20T04:05:35.921Z,99.90
2019-06-20T04:08:04.820Z,99.90
2019-06-20T04:10:34.214Z,99.90
2019-06-20T04:13:03.111Z,99.90
2019-06-20T04:15:31.961Z,99.90
2019-06-20T04:18:05.469Z,99.90
2019-06-20T04:20:34.431Z,99.90
2019-06-20T04:23:03.287Z,99.90
2019-06-20T04:25:32.190Z,99.90
2019-06-20T04:28:01.082Z,99.90
2019-06-20T04:30:29.982Z,99.90
2019-06-20T04:32:58.883Z,99.90
2019-06-20T04:35:27.774Z,99.90
2019-06-20T04:37:56.617Z,99.90
2019-06-20T04:40:25.513Z,99.90
2019-06-20T04:42:54.351Z,99.90
2019-06-20T04:45:34.564Z,99.90
2019-06-20T04:47:55.312Z,99.90
2019-06-20T04:50:24.214Z,99.90
2019-06-20T04:52:53.058Z,99.90
2019-06-20T04:55:21.958Z,99.90
2019-06-20T04:57:50.853Z,99.90
2019-06-20T05:00:19.904Z,99.90
2019-06-20T05:02:48.753Z,99.90
2019-06-20T05:05:17.774Z,99.90
2019-06-20T05:07:46.653Z,99.90
2019-06-20T05:10:15.541Z,99.90
2019-06-20T05:12:44.433Z,99.90
2019-06-20T05:15:13.403Z,99.90
2019-06-20T05:17:42.334Z,99.90
2019-06-20T05:20:11.508Z,99.90
2019-06-20T05:22:40.398Z,99.90
2019-06-20T05:25:09.483Z,99.90
2019-06-20T05:27:38.381Z,99.90
2019-06-20T05:30:11.340Z,99.90
2019-06-20T05:32:40.175Z,99.90
2019-06-20T05:35:09.636Z,99.90
2019-06-20T05:37:38.490Z,99.90
2019-06-20T05:40:10.674Z,99.90
2019-06-20T05:42:39.517Z,99.90
2019-06-20T05:45:09.010Z,99.90
2019-06-20T05:47:37.948Z,99.90
2019-06-20T05:50:16.783Z,99.90
2019-06-20T05:52:42.676Z,99.90
2019-06-20T05:55:11.751Z,99.90
2019-06-20T05:57:40.638Z,99.90
2019-06-20T06:00:10.355Z,99.90
2019-06-20T06:02:40.259Z,99.90
2019-06-20T06:05:09.384Z,99.90
2019-06-20T06:07:38.306Z,99.90
2019-06-20T06:10:08.785Z,99.90
2019-06-20T06:12:37.686Z,99.90
2019-06-20T06:15:07.978Z,99.90
2019-06-20T06:17:36.822Z,99.90
2019-06-20T06:20:07.898Z,99.90
2019-06-20T06:22:36.837Z,99.90
2019-06-20T06:25:08.926Z,99.90
2019-06-20T06:27:37.862Z,99.90
2019-06-20T06:30:11.374Z,99.90
2019-06-20T06:32:40.807Z,99.90
2019-06-20T06:35:11.596Z,99.90
2019-06-20T06:37:41.057Z,99.90
2019-06-20T06:40:11.666Z,99.90
2019-06-20T06:42:40.549Z,99.90
2019-06-20T06:45:10.216Z,99.90
2019-06-20T06:47:39.182Z,99.90
2019-06-20T06:50:09.394Z,99.90
2019-06-20T06:52:38.323Z,99.90
2019-06-20T06:55:07.514Z,99.90
2019-06-20T06:57:36.490Z,99.90
2019-06-20T07:00:10.894Z,99.90
2019-06-20T07:02:39.765Z,99.90
2019-06-20T07:05:09.625Z,99.90
2019-06-20T07:07:38.548Z,99.90
2019-06-20T07:10:08.380Z,99.00
2019-06-20T07:12:37.295Z,98.10
2019-06-20T07:15:08.387Z,96.30
2019-06-20T07:17:37.272Z,95.00
2019-06-20T07:20:09.315Z,94.30
2019-06-20T07:22:38.255Z,93.50
2019-06-20T07:25:08.421Z,92.70
2019-06-20T07:27:37.373Z,92.30
2019-06-20T07:30:08.807Z,91.20
2019-06-20T07:32:37.715Z,90.10
2019-06-20T07:35:07.956Z,88.60
2019-06-20T07:37:36.796Z,86.60
2019-06-20T07:40:09.659Z,86.20
2019-06-20T07:42:38.579Z,83.30
2019-06-20T07:45:09.445Z,82.40
2019-06-20T07:47:38.346Z,80.70
2019-06-20T07:50:10.899Z,80.70
2019-06-20T07:52:39.840Z,78.50
2019-06-20T07:55:09.162Z,76.90
2019-06-20T07:57:38.261Z,75.10
2019-06-20T08:00:10.086Z,74.00
2019-06-20T08:02:39.013Z,72.70
2019-06-20T08:05:08.639Z,70.70
2019-06-20T08:07:37.652Z,65.80
2019-06-20T08:10:12.141Z,67.80
2019-06-20T08:12:41.251Z,65.00
2019-06-20T08:15:15.426Z,59.80
2019-06-20T08:17:41.229Z,60.80
2019-06-20T08:20:12.216Z,61.70
2019-06-20T08:22:41.806Z,62.80
2019-06-20T08:25:10.991Z,61.10
2019-06-20T08:27:52.035Z,59.10
2019-06-20T08:30:26.982Z,58.30
2019-06-20T08:32:57.455Z,57.60
2019-06-20T08:35:29.155Z,57.20
2019-06-20T08:37:59.625Z,55.60
2019-06-20T08:40:31.362Z,55.90
2019-06-20T08:43:00.265Z,53.60
2019-06-20T08:45:32.237Z,52.90
2019-06-20T08:48:02.454Z,55.00
2019-06-20T08:50:33.120Z,55.40
2019-06-20T08:53:03.510Z,53.80
2019-06-20T08:55:32.605Z,50.00
2019-06-20T08:58:01.824Z,51.10
2019-06-20T09:00:35.075Z,50.10
2019-06-20T09:03:05.435Z,50.00
2019-06-20T09:05:34.979Z,50.50
2019-06-20T09:08:04.732Z,49.40
2019-06-20T09:10:38.637Z,48.70
2019-06-20T09:13:08.132Z,47.80
2019-06-20T09:15:37.282Z,48.50
2019-06-20T09:18:06.350Z,48.30
2019-06-20T09:20:35.669Z,49.60
2019-06-20T09:23:05.141Z,49.40
2019-06-20T09:25:34.131Z,47.50
2019-06-20T09:28:03.150Z,46.30
2019-06-20T09:30:32.207Z,46.90
2019-06-20T09:33:01.082Z,47.20
2019-06-20T09:35:30.479Z,47.00
2019-06-20T09:37:59.431Z,45.60
2019-06-20T09:40:28.637Z,44.70
2019-06-20T09:42:58.756Z,45.10
2019-06-20T09:45:27.917Z,44.90
2019-06-20T09:47:58.143Z,43.70
2019-06-20T09:50:27.367Z,44.00
2019-06-20T09:52:56.748Z,43.50
2019-06-20T09:55:25.734Z,42.70
2019-06-20T09:57:55.843Z,44.30
2019-06-20T10:00:27.420Z,42.80
2019-06-20T10:02:57.882Z,43.10
2019-06-20T10:05:27.076Z,42.40
2019-06-20T10:07:56.695Z,41.90
2019-06-20T10:10:29.998Z,42.30
2019-06-20T10:12:59.490Z,41.20
2019-06-20T10:15:32.803Z,42.30
2019-06-20T10:18:01.690Z,41.20
2019-06-20T10:20:30.598Z,41.00
2019-06-20T10:22:59.457Z,41.60
2019-06-20T10:25:28.457Z,40.80
2019-06-20T10:27:57.844Z,40.90
2019-06-20T10:30:27.945Z,39.80
2019-06-20T10:32:57.793Z,40.00
2019-06-20T10:35:26.969Z,40.00
2019-06-20T10:37:57.220Z,40.90
2019-06-20T10:40:26.588Z,40.20
2019-06-20T10:42:56.673Z,40.00
2019-06-20T10:45:27.705Z,38.90
2019-06-20T10:47:56.781Z,38.90
2019-06-20T10:50:27.435Z,39.20
2019-06-20T10:52:56.316Z,39.40
2019-06-20T10:55:25.921Z,40.10
2019-06-20T10:57:54.879Z,39.20
2019-06-20T11:00:31.257Z,37.60
2019-06-20T11:02:56.457Z,39.10
2019-06-20T11:05:25.626Z,39.20
2019-06-20T11:07:54.447Z,40.20
2019-06-20T11:10:24.830Z,38.80
2019-06-20T11:12:55.941Z,38.20
2019-06-20T11:15:24.723Z,38.70
2019-06-20T11:17:56.323Z,37.00
2019-06-20T11:20:24.448Z,37.10
2019-06-20T11:22:53.341Z,37.30
2019-06-20T11:25:22.622Z,37.50
2019-06-20T11:27:51.467Z,36.30
2019-06-20T11:30:28.846Z,35.80
2019-06-20T11:32:57.905Z,36.50
2019-06-20T11:35:26.852Z,35.90
2019-06-20T11:37:55.839Z,37.00
2019-06-20T11:40:24.996Z,36.10
2019-06-20T11:42:53.951Z,36.70
2019-06-20T11:45:23.156Z,36.90
2019-06-20T11:47:52.115Z,35.60
2019-06-20T11:50:22.582Z,36.00
2019-06-20T11:52:51.530Z,36.70
2019-06-20T11:55:20.822Z,36.90
2019-06-20T11:57:49.683Z,36.80
2019-06-20T12:00:19.852Z,36.60
2019-06-20T12:02:50.148Z,35.90
2019-06-20T12:05:19.449Z,36.60
2019-06-20T12:07:49.900Z,36.20
2019-06-20T12:10:20.720Z,35.60
2019-06-20T12:12:49.783Z,36.30
2019-06-20T12:15:19.251Z,36.40
2019-06-20T12:17:49.355Z,38.20
2019-06-20T12:20:20.536Z,35.20
2019-06-20T12:22:50.729Z,34.60
2019-06-20T12:25:20.416Z,34.10
2019-06-20T12:27:49.854Z,35.00
2019-06-20T12:30:21.131Z,34.70
2019-06-20T12:32:50.138Z,34.20
2019-06-20T12:35:19.910Z,35.60
2019-06-20T12:37:49.973Z,35.10
2019-06-20T12:40:21.076Z,34.00
2019-06-20T12:42:50.131Z,34.80
2019-06-20T12:45:19.169Z,34.80
2019-06-20T12:47:48.252Z,36.90
2019-06-20T12:50:17.555Z,36.10
2019-06-20T12:52:47.605Z,37.00
2019-06-20T12:55:16.935Z,37.90
2019-06-20T12:57:46.279Z,37.80
2019-06-20T13:00:16.465Z,37.50
2019-06-20T13:02:45.599Z,38.40
2019-06-20T13:05:17.007Z,38.90
2019-06-20T13:07:46.472Z,37.20
2019-06-20T13:10:16.475Z,35.70
2019-06-20T13:12:46.361Z,36.40
2019-06-20T13:15:16.316Z,34.10
2019-06-20T13:17:47.002Z,34.20
2019-06-20T13:20:17.581Z,37.00
2019-06-20T13:22:46.634Z,34.00
2019-06-20T13:25:15.774Z,33.00
2019-06-20T13:27:45.709Z,34.10
2019-06-20T13:30:14.898Z,36.30
2019-06-20T13:32:45.239Z,34.90
2019-06-20T13:35:16.222Z,34.20
2019-06-20T13:37:45.771Z,33.90
2019-06-20T13:40:18.029Z,34.60
2019-06-20T13:42:48.065Z,34.40
2019-06-20T13:45:25.740Z,34.30
2019-06-20T13:47:55.004Z,35.00
2019-06-20T13:50:25.309Z,36.20
2019-06-20T13:52:54.297Z,35.70
2019-06-20T13:55:23.521Z,35.50
2019-06-20T13:57:52.470Z,34.50
2019-06-20T14:00:23.993Z,33.80
2019-06-20T14:02:53.231Z,34.00
2019-06-20T14:05:22.316Z,34.40
2019-06-20T14:07:53.775Z,35.70
2019-06-20T14:10:22.380Z,38.30
2019-06-20T14:12:51.319Z,40.60
2019-06-20T14:15:20.453Z,41.50
2019-06-20T14:17:49.964Z,42.10
2019-06-20T14:20:28.577Z,41.90
2019-06-20T14:22:57.537Z,43.40
2019-06-20T14:25:26.460Z,44.50
2019-06-20T14:27:55.429Z,45.60
2019-06-20T14:30:24.766Z,47.00
2019-06-20T14:32:54.007Z,48.10
2019-06-20T14:35:23.620Z,47.70
2019-06-20T14:37:52.671Z,48.20
2019-06-20T14:40:22.558Z,48.10
2019-06-20T14:42:52.336Z,49.00
2019-06-20T14:45:21.440Z,49.20
2019-06-20T14:47:52.340Z,49.50
2019-06-20T14:50:21.682Z,49.40
2019-06-20T14:52:52.149Z,50.00
2019-06-20T14:55:21.505Z,50.60
2019-06-20T14:57:52.509Z,50.60
2019-06-20T15:00:23.162Z,51.00
2019-06-20T15:02:56.677Z,51.20
2019-06-20T15:05:23.378Z,51.80
2019-06-20T15:07:53.841Z,51.90
2019-06-20T15:10:23.312Z,51.50
2019-06-20T15:12:53.651Z,52.10
2019-06-20T15:15:23.012Z,52.80
2019-06-20T15:17:54.080Z,52.70
2019-06-20T15:20:22.570Z,52.90
2019-06-20T15:22:52.707Z,52.80
2019-06-20T15:25:22.171Z,53.10
2019-06-20T15:27:53.182Z,53.30
2019-06-20T15:30:21.878Z,53.60
2019-06-20T15:33:01.890Z,53.10
2019-06-20T15:35:21.546Z,53.20
2019-06-20T15:37:51.640Z,53.10
2019-06-20T15:40:21.531Z,52.60
2019-06-20T15:42:51.586Z,49.60
2019-06-20T15:45:21.235Z,47.30
2019-06-20T15:47:50.155Z,48.00
2019-06-20T15:50:19.214Z,46.70
2019-06-20T15:52:48.128Z,45.90
2019-06-20T15:55:21.548Z,44.40
2019-06-20T15:57:53.942Z,43.40
2019-06-20T16:00:21.407Z,44.50
2019-06-20T16:02:50.422Z,45.70
2019-06-20T16:05:19.503Z,46.20
2019-06-20T16:07:48.419Z,47.20
2019-06-20T16:10:17.965Z,49.00
2019-06-20T16:12:46.923Z,50.90
2019-06-20T16:15:18.936Z,52.50
2019-06-20T16:17:47.852Z,53.20
2019-06-20T16:20:16.917Z,54.60
2019-06-20T16:22:45.845Z,54.70
2019-06-20T16:25:15.113Z,54.00
2019-06-20T16:27:44.040Z,53.00
2019-06-20T16:30:13.050Z,54.40
2019-06-20T16:32:42.038Z,54.50
2019-06-20T16:35:11.238Z,54.20
2019-06-20T16:37:40.188Z,54.50
2019-06-20T16:40:11.374Z,54.70
2019-06-20T16:42:40.343Z,55.20
2019-06-20T16:45:10.356Z,56.20
2019-06-20T16:47:39.901Z,57.10
2019-06-20T16:50:09.474Z,57.70
2019-06-20T16:52:38.505Z,57.30
2019-06-20T16:55:08.445Z,57.60
2019-06-20T16:57:37.623Z,58.30
2019-06-20T17:00:08.588Z,58.80
2019-06-20T17:02:37.588Z,58.90
2019-06-20T17:05:08.093Z,59.00
2019-06-20T17:07:37.102Z,59.30
2019-06-20T17:10:07.695Z,59.30
2019-06-20T17:12:36.752Z,59.30
2019-06-20T17:15:06.980Z,59.30
2019-06-20T17:17:35.922Z,59.30
2019-06-20T17:20:09.560Z,59.60
2019-06-20T17:22:39.028Z,60.40
2019-06-20T17:25:08.751Z,61.80
2019-06-20T17:27:37.810Z,62.90
2019-06-20T17:30:09.593Z,63.70
2019-06-20T17:32:38.677Z,64.20
2019-06-20T17:35:09.300Z,64.90
2019-06-20T17:37:38.256Z,65.70
2019-06-20T17:40:12.315Z,66.60
2019-06-20T17:42:41.300Z,67.80
2019-06-20T17:45:11.010Z,68.60
2019-06-20T17:47:39.978Z,69.40
2019-06-20T17:50:11.105Z,69.90
2019-06-20T17:52:40.228Z,70.00
2019-06-20T17:55:09.350Z,70.80
2019-06-20T17:57:38.550Z,71.60
2019-06-20T18:00:16.870Z,73.30
2019-06-20T18:02:45.927Z,73.90
2019-06-20T18:05:15.382Z,74.90
2019-06-20T18:07:44.569Z,75.30
2019-06-20T18:10:13.811Z,76.40
2019-06-20T18:12:42.775Z,77.60
2019-06-20T18:15:12.360Z,78.40
2019-06-20T18:17:41.479Z,78.40
2019-06-20T18:20:10.780Z,79.00
2019-06-20T18:22:39.878Z,79.80
2019-06-20T18:25:10.171Z,80.10
2019-06-20T18:27:39.561Z,80.30
2019-06-20T18:30:09.591Z,80.10
2019-06-20T18:32:38.531Z,79.80
2019-06-20T18:35:08.484Z,80.50
2019-06-20T18:37:37.540Z,80.50
2019-06-20T18:40:09.056Z,81.40
2019-06-20T18:42:38.125Z,80.50
2019-06-20T18:45:09.032Z,81.10
2019-06-20T18:47:37.962Z,82.30
2019-06-20T18:50:07.629Z,82.30
2019-06-20T18:52:51.174Z,83.30
2019-06-20T18:55:12.273Z,84.60
2019-06-20T18:57:41.328Z,84.00
2019-06-20T19:00:13.401Z,84.10
2019-06-20T19:02:42.492Z,85.00
2019-06-20T19:05:11.943Z,84.10
2019-06-20T19:07:41.037Z,83.80
2019-06-20T19:10:11.245Z,83.80
2019-06-20T19:12:40.246Z,84.50
2019-06-20T19:15:10.338Z,83.80
2019-06-20T19:17:39.390Z,84.20
2019-06-20T19:20:09.212Z,84.40
2019-06-20T19:22:38.231Z,84.60
2019-06-20T19:25:10.099Z,85.60
2019-06-20T19:27:46.259Z,86.10
2019-06-20T19:30:11.821Z,87.30
2019-06-20T19:32:40.769Z,87.90
2019-06-20T19:35:10.654Z,88.40
2019-06-20T19:37:39.890Z,88.90
2019-06-20T19:40:10.209Z,89.40
2019-06-20T19:42:39.234Z,89.20
2019-06-20T19:45:10.653Z,89.30
2019-06-20T19:47:39.979Z,90.10
2019-06-20T19:50:09.481Z,90.40
2019-06-20T19:52:38.563Z,90.90
2019-06-20T19:55:07.779Z,91.40
2019-06-20T19:57:36.740Z,90.30
2019-06-20T20:00:07.622Z,90.00
2019-06-20T20:02:36.735Z,87.60
2019-06-20T20:05:18.567Z,87.50
2019-06-20T20:07:39.525Z,86.60
2019-06-20T20:10:09.761Z,85.80
2019-06-20T20:12:38.784Z,86.20
2019-06-20T20:15:11.100Z,84.10
2019-06-20T20:17:40.145Z,85.10
2019-06-20T20:20:09.371Z,84.20
2019-06-20T20:22:38.363Z,83.20
2019-06-20T20:25:08.733Z,83.20
2019-06-20T20:27:37.683Z,83.10
2019-06-20T20:30:08.935Z,84.30
2019-06-20T20:32:37.893Z,84.00
2019-06-20T20:35:07.246Z,84.60
2019-06-20T20:37:37.097Z,83.70
2019-06-20T20:40:10.884Z,84.30
2019-06-20T20:42:40.066Z,84.60
2019-06-20T20:45:09.543Z,84.50
2019-06-20T20:47:38.553Z,83.30
2019-06-20T20:50:08.524Z,83.40
2019-06-20T20:52:37.517Z,82.80
2019-06-20T20:55:08.031Z,83.10
2019-06-20T20:57:37.124Z,83.30
2019-06-20T21:00:17.826Z,83.30
2019-06-20T21:02:46.748Z,83.10
2019-06-20T21:05:15.704Z,83.10
2019-06-20T21:07:44.592Z,83.60
2019-06-20T21:10:13.504Z,84.00
2019-06-20T21:12:42.453Z,84.50
2019-06-20T21:15:11.477Z,84.70
2019-06-20T21:17:40.386Z,85.40
2019-06-20T21:20:10.601Z,85.80
2019-06-20T21:22:39.452Z,86.10
2019-06-20T21:25:09.689Z,86.50
2019-06-20T21:27:38.568Z,86.80
2019-06-20T21:30:10.673Z,87.20
2019-06-20T21:32:39.555Z,87.80
2019-06-20T21:35:08.927Z,88.60
2019-06-20T21:37:37.920Z,90.00
2019-06-20T21:40:07.425Z,90.90
2019-06-20T21:42:36.294Z,92.20
2019-06-20T21:45:07.226Z,92.00
2019-06-20T21:47:36.190Z,93.00
2019-06-20T21:50:06.879Z,92.80
2019-06-20T21:52:35.819Z,93.10
2019-06-20T21:55:06.005Z,93.70
2019-06-20T21:57:34.881Z,94.00
2019-06-20T22:00:05.282Z,94.80
2019-06-20T22:02:34.187Z,95.10
2019-06-20T22:05:03.164Z,95.40
2019-06-20T22:07:32.061Z,95.40
2019-06-20T22:10:00.956Z,96.30
2019-06-20T22:12:29.875Z,95.60
2019-06-20T22:14:58.714Z,96.00
2019-06-20T22:17:27.650Z,96.10
2019-06-20T22:19:56.520Z,96.10
2019-06-20T22:22:25.450Z,96.30
2019-06-20T22:24:54.296Z,96.90
2019-06-20T22:27:23.179Z,97.30
2019-06-20T22:29:52.017Z,97.50
2019-06-20T22:32:20.970Z,97.70
2019-06-20T22:34:49.803Z,97.80
2019-06-20T22:37:18.735Z,97.70
2019-06-20T22:39:47.715Z,98.10
2019-06-20T22:42:16.647Z,98.60
2019-06-20T22:44:45.545Z,99.10
2019-06-20T22:47:22.845Z,99.40
2019-06-20T22:49:51.710Z,99.90
2019-06-20T22:52:20.646Z,99.90
2019-06-20T22:54:49.519Z,99.90
2019-06-20T22:57:18.491Z,99.90
2019-06-20T22:59:47.437Z,99.90
2019-06-20T23:02:16.306Z,99.90
2019-06-20T23:04:45.154Z,99.90
2019-06-20T23:07:13.993Z,99.90
2019-06-20T23:09:42.880Z,99.90
2019-06-20T23:12:11.709Z,99.90
2019-06-20T23:14:40.623Z,99.90
2019-06-20T23:17:09.521Z,99.90
2019-06-20T23:19:38.441Z,99.90
2019-06-20T23:22:07.356Z,99.90
2019-06-20T23:24:36.239Z,99.90
2019-06-20T23:27:05.143Z,99.90
2019-06-20T23:29:33.991Z,99.90
2019-06-20T23:32:02.896Z,99.90
2019-06-20T23:34:31.759Z,99.90
2019-06-20T23:37:12.375Z,99.90
2019-06-20T23:39:31.187Z,99.90
2019-06-20T23:42:00.084Z,99.90
2019-06-20T23:44:28.926Z,99.90
2019-06-20T23:46:57.874Z,99.90
2019-06-20T23:49:26.765Z,99.90
2019-06-20T23:51:57.240Z,99.90
2019-06-20T23:54:26.174Z,99.90
2019-06-20T23:56:55.040Z,99.90
2019-06-20T23:59:23.913Z,99.90
